createdAt,value
2018-07-12T00:00:56.437Z,22.57
2018-07-12T00:03:24.257Z,24.47
2018-07-12T00:05:52.094Z,26.37
2018-07-12T00:08:19.888Z,19.33
2018-07-12T00:10:47.750Z,25.77
2018-07-12T00:13:15.594Z,22.57
2018-07-12T00:15:43.409Z,23.97
2018-07-12T00:18:11.210Z,24.37
2018-07-12T00:20:39.045Z,24.73
2018-07-12T00:23:06.913Z,23.67
2018-07-12T00:25:34.775Z,24.57
2018-07-12T00:28:06.657Z,28.97
2018-07-12T00:30:34.538Z,24.53
2018-07-12T00:33:02.345Z,25.70
2018-07-12T00:35:30.141Z,25.07
2018-07-12T00:37:58.141Z,26.80
2018-07-12T00:40:25.978Z,20.93
2018-07-12T00:42:53.802Z,21.97
2018-07-12T00:45:21.638Z,20.33
2018-07-12T00:47:49.458Z,19.27
2018-07-12T00:50:17.297Z,16.87
2018-07-12T00:52:45.062Z,14.33
2018-07-12T00:55:12.906Z,16.77
2018-07-12T00:57:40.714Z,15.67
2018-07-12T01:00:15.529Z,18.50
2018-07-12T01:02:43.357Z,16.93
2018-07-12T01:05:11.200Z,17.23
2018-07-12T01:07:39.033Z,16.43
2018-07-12T01:10:06.794Z,16.27
2018-07-12T01:12:34.614Z,19.33
2018-07-12T01:15:02.439Z,17.50
2018-07-12T01:17:30.201Z,18.40
2018-07-12T01:19:58.073Z,20.00
2018-07-12T01:22:25.833Z,20.77
2018-07-12T01:24:53.661Z,23.00
2018-07-12T01:27:21.490Z,23.33
2018-07-12T01:29:49.305Z,19.03
2018-07-12T01:32:17.173Z,20.93
2018-07-12T01:34:44.985Z,17.10
2018-07-12T01:37:12.849Z,17.10
2018-07-12T01:39:40.706Z,22.83
2018-07-12T01:42:08.604Z,21.80
2018-07-12T01:44:36.450Z,21.50
2018-07-12T01:47:08.121Z,22.97
2018-07-12T01:49:35.949Z,21.53
2018-07-12T01:52:03.766Z,23.00
2018-07-12T01:54:31.610Z,21.47
2018-07-12T01:56:59.423Z,19.63
2018-07-12T01:59:27.241Z,18.87
2018-07-12T02:01:55.289Z,22.47
2018-07-12T02:04:23.098Z,19.07
2018-07-12T02:06:50.960Z,23.43
2018-07-12T02:09:18.777Z,21.23
2018-07-12T02:11:46.616Z,23.43
2018-07-12T02:14:14.453Z,24.83
2018-07-12T02:16:42.309Z,22.10
2018-07-12T02:19:10.114Z,21.47
2018-07-12T02:21:38.168Z,21.83
2018-07-12T02:24:05.936Z,23.63
2018-07-12T02:26:42.844Z,17.03
2018-07-12T02:29:10.684Z,20.67
2018-07-12T02:31:38.580Z,20.50
2018-07-12T02:34:06.573Z,20.93
2018-07-12T02:36:34.367Z,22.03
2018-07-12T02:39:02.199Z,22.80
2018-07-12T02:41:30.007Z,23.17
2018-07-12T02:43:57.784Z,20.07
2018-07-12T02:46:25.609Z,17.60
2018-07-12T02:48:53.469Z,21.53
2018-07-12T02:51:21.490Z,22.30
2018-07-12T02:53:49.634Z,24.03
2018-07-12T02:56:17.438Z,22.10
2018-07-12T02:58:45.493Z,22.43
2018-07-12T03:01:13.342Z,21.37
2018-07-12T03:03:41.130Z,19.97
2018-07-12T03:06:08.966Z,18.93
2018-07-12T03:08:36.857Z,17.77
2018-07-12T03:11:04.670Z,19.87
2018-07-12T03:13:32.498Z,20.57
2018-07-12T03:16:00.336Z,16.77
2018-07-12T03:18:28.352Z,14.33
2018-07-12T03:20:56.181Z,14.67
2018-07-12T03:23:24.040Z,14.07
2018-07-12T03:25:52.778Z,15.67
2018-07-12T03:28:20.581Z,19.90
2018-07-12T03:30:48.457Z,16.90
2018-07-12T03:33:16.235Z,15.50
2018-07-12T03:35:44.060Z,19.77
2018-07-12T03:38:11.925Z,20.10
2018-07-12T03:40:39.829Z,19.03
2018-07-12T03:43:07.798Z,17.13
2018-07-12T03:45:35.605Z,19.50
2018-07-12T03:48:03.445Z,18.43
2018-07-12T03:50:31.553Z,19.80
2018-07-12T03:53:03.225Z,14.27
2018-07-12T03:55:31.097Z,16.70
2018-07-12T03:57:59.214Z,14.90
2018-07-12T04:00:26.974Z,12.77
2018-07-12T04:02:54.783Z,14.17
2018-07-12T04:05:22.605Z,15.23
2018-07-12T04:07:50.462Z,20.20
2018-07-12T04:10:18.266Z,14.97
2018-07-12T04:12:46.185Z,12.03
2018-07-12T04:15:14.002Z,12.07
2018-07-12T04:17:41.761Z,13.13
2018-07-12T04:20:09.644Z,16.67
2018-07-12T04:22:37.524Z,13.23
2018-07-12T04:25:05.337Z,12.43
2018-07-12T04:27:33.216Z,14.60
2018-07-12T04:30:01.090Z,18.80
2018-07-12T04:32:28.875Z,15.20
2018-07-12T04:34:56.751Z,13.10
2018-07-12T04:37:24.561Z,15.03
2018-07-12T04:39:52.421Z,11.77
2018-07-12T04:42:36.073Z,13.07
2018-07-12T04:45:03.830Z,12.87
2018-07-12T04:47:31.670Z,10.43
2018-07-12T04:49:59.489Z,11.13
2018-07-12T04:52:27.294Z,12.93
2018-07-12T04:54:55.120Z,12.10
2018-07-12T04:57:22.984Z,16.70
2018-07-12T04:59:50.813Z,14.77
2018-07-12T05:02:18.569Z,13.10
2018-07-12T05:04:46.349Z,13.00
2018-07-12T05:07:14.177Z,14.17
2018-07-12T05:09:41.986Z,13.97
2018-07-12T05:12:09.817Z,13.97
2018-07-12T05:14:37.641Z,14.10
2018-07-12T05:17:05.446Z,13.57
2018-07-12T05:19:33.305Z,12.83
2018-07-12T05:22:01.250Z,14.90
2018-07-12T05:24:29.030Z,12.87
2018-07-12T05:26:56.849Z,14.23
2018-07-12T05:29:24.649Z,14.03
2018-07-12T05:31:52.422Z,13.13
2018-07-12T05:34:20.305Z,13.20
2018-07-12T05:36:55.114Z,11.77
2018-07-12T05:39:23.948Z,11.23
2018-07-12T05:41:58.900Z,12.07
2018-07-12T05:44:32.758Z,12.37
2018-07-12T05:47:09.234Z,14.20
2018-07-12T05:49:38.117Z,12.40
2018-07-12T05:52:06.945Z,13.80
2018-07-12T05:54:41.914Z,14.97
2018-07-12T05:57:10.714Z,12.97
2018-07-12T05:59:46.278Z,12.50
2018-07-12T06:02:22.332Z,13.80
2018-07-12T06:04:52.253Z,11.83
2018-07-12T06:07:26.572Z,13.03
2018-07-12T06:09:55.613Z,12.47
2018-07-12T06:12:24.280Z,12.23
2018-07-12T06:14:53.018Z,11.83
2018-07-12T06:17:23.873Z,11.30
2018-07-12T06:19:54.350Z,11.47
2018-07-12T06:22:23.206Z,9.63
2018-07-12T06:24:52.069Z,11.87
2018-07-12T06:27:29.741Z,11.43
2018-07-12T06:29:58.557Z,10.80
2018-07-12T06:32:34.817Z,12.77
2018-07-12T06:35:03.630Z,11.83
2018-07-12T06:37:42.212Z,11.80
2018-07-12T06:40:11.062Z,12.63
2018-07-12T06:42:39.883Z,9.77
2018-07-12T06:45:08.645Z,11.47
2018-07-12T06:47:37.570Z,10.20
2018-07-12T06:50:06.337Z,10.13
2018-07-12T06:52:35.690Z,10.30
2018-07-12T06:55:04.477Z,9.83
2018-07-12T06:57:35.941Z,8.90
2018-07-12T07:00:04.841Z,10.10
2018-07-12T07:02:43.518Z,8.53
2018-07-12T07:05:12.335Z,9.43
2018-07-12T07:07:41.173Z,11.27
2018-07-12T07:10:11.100Z,10.23
2018-07-12T07:12:39.866Z,10.33
2018-07-12T07:15:08.642Z,8.63
2018-07-12T07:17:37.642Z,10.77
2018-07-12T07:20:06.405Z,9.33
2018-07-12T07:22:39.365Z,9.93
2018-07-12T07:25:08.232Z,9.00
2018-07-12T07:27:38.121Z,9.93
2018-07-12T07:30:06.910Z,9.37
2018-07-12T07:32:35.986Z,10.20
2018-07-12T07:35:04.758Z,8.23
2018-07-12T07:37:38.613Z,8.53
2018-07-12T07:40:07.633Z,8.17
2018-07-12T07:42:36.461Z,8.23
2018-07-12T07:45:05.665Z,7.33
2018-07-12T07:47:34.567Z,8.60
2018-07-12T07:50:03.726Z,6.87
2018-07-12T07:52:32.496Z,7.67
2018-07-12T07:55:01.481Z,8.30
2018-07-12T07:57:30.230Z,7.33
2018-07-12T07:59:59.028Z,8.60
2018-07-12T08:02:28.073Z,7.40
2018-07-12T08:04:56.845Z,8.20
2018-07-12T08:07:25.633Z,6.97
2018-07-12T08:09:58.542Z,7.23
2018-07-12T08:12:27.389Z,7.20
2018-07-12T08:14:56.234Z,7.23
2018-07-12T08:17:26.022Z,6.87
2018-07-12T08:19:54.886Z,8.23
2018-07-12T08:22:23.727Z,7.70
2018-07-12T08:24:52.569Z,6.83
2018-07-12T08:27:21.361Z,6.93
2018-07-12T08:29:51.297Z,7.43
2018-07-12T08:32:20.125Z,6.10
2018-07-12T08:34:48.945Z,5.93
2018-07-12T08:37:17.745Z,7.03
2018-07-12T08:39:46.637Z,6.17
2018-07-12T08:42:15.389Z,5.73
2018-07-12T08:44:44.141Z,7.47
2018-07-12T08:47:12.905Z,6.27
2018-07-12T08:49:41.758Z,7.03
2018-07-12T08:52:10.548Z,6.30
2018-07-12T08:54:48.208Z,6.87
2018-07-12T08:57:18.039Z,6.17
2018-07-12T08:59:46.905Z,6.40
2018-07-12T09:02:20.620Z,6.67
2018-07-12T09:04:49.490Z,5.63
2018-07-12T09:07:18.229Z,5.97
2018-07-12T09:09:47.023Z,5.13
2018-07-12T09:12:15.822Z,5.70
2018-07-12T09:14:45.117Z,5.50
2018-07-12T09:17:14.286Z,5.87
2018-07-12T09:19:43.125Z,5.67
2018-07-12T09:22:11.861Z,5.80
2018-07-12T09:24:40.693Z,6.17
2018-07-12T09:27:09.512Z,5.77
2018-07-12T09:29:38.386Z,5.83
2018-07-12T09:32:07.173Z,6.00
2018-07-12T09:34:35.965Z,6.03
2018-07-12T09:37:04.884Z,5.93
2018-07-12T09:39:33.554Z,5.00
2018-07-12T09:42:02.318Z,4.27
2018-07-12T09:44:48.749Z,5.23
2018-07-12T09:47:17.555Z,5.20
2018-07-12T09:49:46.305Z,3.93
2018-07-12T09:52:20.517Z,4.43
2018-07-12T09:54:49.294Z,4.20
2018-07-12T09:57:29.525Z,3.77
2018-07-12T10:00:05.297Z,3.80
2018-07-12T10:02:39.373Z,3.40
2018-07-12T10:05:13.589Z,3.83
2018-07-12T10:07:46.829Z,4.40
2018-07-12T10:10:15.549Z,4.00
2018-07-12T10:12:49.773Z,4.00
2018-07-12T10:15:24.029Z,3.70
2018-07-12T10:17:57.959Z,3.90
2018-07-12T10:20:26.716Z,3.87
2018-07-12T10:22:55.730Z,3.43
2018-07-12T10:25:24.458Z,4.07
2018-07-12T10:27:53.401Z,3.27
2018-07-12T10:30:22.158Z,3.37
2018-07-12T10:32:50.904Z,2.80
2018-07-12T10:35:19.681Z,3.20
2018-07-12T10:37:48.474Z,2.90
2018-07-12T10:40:17.282Z,3.00
2018-07-12T10:42:53.677Z,2.80
2018-07-12T10:45:22.488Z,2.80
2018-07-12T10:47:51.523Z,3.10
2018-07-12T10:50:20.310Z,2.87
2018-07-12T10:52:49.073Z,2.57
2018-07-12T10:55:17.942Z,2.90
2018-07-12T10:57:46.782Z,2.70
2018-07-12T11:00:24.249Z,3.03
2018-07-12T11:02:53.093Z,2.80
2018-07-12T11:05:21.982Z,3.20
2018-07-12T11:07:50.528Z,3.00
2018-07-12T11:10:19.263Z,2.70
2018-07-12T11:12:59.394Z,2.93
2018-07-12T11:15:28.266Z,2.40
2018-07-12T11:17:57.061Z,2.40
2018-07-12T11:20:32.362Z,2.30
2018-07-12T11:23:01.126Z,2.40
2018-07-12T11:25:30.069Z,2.30
2018-07-12T11:28:08.862Z,2.37
2018-07-12T11:30:37.709Z,2.30
2018-07-12T11:33:11.783Z,1.90
2018-07-12T11:35:40.562Z,2.27
2018-07-12T11:38:09.353Z,2.40
2018-07-12T11:40:38.185Z,2.50
2018-07-12T11:43:07.026Z,2.67
2018-07-12T11:45:35.870Z,3.03
2018-07-12T11:48:04.676Z,2.90
2018-07-12T11:50:33.473Z,2.60
2018-07-12T11:53:02.466Z,2.53
2018-07-12T11:55:37.753Z,2.70
2018-07-12T11:58:06.554Z,3.20
2018-07-12T12:00:39.481Z,2.43
2018-07-12T12:03:10.466Z,2.50
2018-07-12T12:05:39.507Z,2.53
2018-07-12T12:08:08.370Z,2.53
2018-07-12T12:10:37.243Z,2.60
2018-07-12T12:13:05.963Z,3.10
2018-07-12T12:15:35.001Z,2.43
2018-07-12T12:18:08.829Z,2.43
2018-07-12T12:20:37.833Z,2.20
2018-07-12T12:23:06.957Z,2.30
2018-07-12T12:25:35.781Z,2.20
2018-07-12T12:28:04.722Z,2.40
2018-07-12T12:30:33.763Z,1.80
2018-07-12T12:33:02.498Z,2.20
2018-07-12T12:35:31.470Z,2.90
2018-07-12T12:38:00.369Z,1.90
2018-07-12T12:40:34.651Z,2.50
2018-07-12T12:43:03.493Z,2.00
2018-07-12T12:45:37.461Z,1.80
2018-07-12T12:48:06.278Z,2.67
2018-07-12T12:50:35.057Z,2.63
2018-07-12T12:53:03.900Z,2.60
2018-07-12T12:55:39.446Z,2.70
2018-07-12T12:58:08.378Z,2.43
2018-07-12T13:00:37.076Z,2.70
2018-07-12T13:03:05.914Z,2.70
2018-07-12T13:05:34.679Z,2.70
2018-07-12T13:08:03.550Z,2.53
2018-07-12T13:10:32.357Z,2.40
2018-07-12T13:13:01.117Z,1.90
2018-07-12T13:15:34.022Z,2.00
2018-07-12T13:18:02.953Z,2.00
2018-07-12T13:23:22.770Z,2.13
2018-07-12T13:25:53.731Z,2.10
2018-07-12T13:28:22.601Z,2.50
2018-07-12T13:30:51.413Z,2.20
2018-07-12T13:33:29.068Z,2.47
2018-07-12T13:35:57.830Z,2.10
2018-07-12T13:38:26.678Z,2.30
2018-07-12T13:40:55.563Z,2.20
2018-07-12T13:43:24.315Z,2.53
2018-07-12T13:45:53.226Z,2.30
2018-07-12T13:48:22.134Z,2.50
2018-07-12T13:50:50.827Z,2.07
2018-07-12T13:53:19.677Z,2.07
2018-07-12T13:55:48.473Z,2.20
2018-07-12T13:58:17.285Z,2.87
2018-07-12T14:00:46.013Z,2.77
2018-07-12T14:03:14.786Z,2.57
2018-07-12T14:05:43.653Z,2.83
2018-07-12T14:08:12.494Z,2.33
2018-07-12T14:10:41.333Z,2.33
2018-07-12T14:13:23.517Z,2.50
2018-07-12T14:15:52.252Z,2.23
2018-07-12T14:18:21.064Z,2.20
2018-07-12T14:20:49.862Z,2.50
2018-07-12T14:23:18.786Z,2.70
2018-07-12T14:26:03.958Z,2.47
2018-07-12T14:28:32.874Z,2.10
2018-07-12T14:31:01.718Z,2.50
2018-07-12T14:33:30.484Z,2.23
2018-07-12T14:35:59.220Z,2.30
2018-07-12T14:38:27.942Z,2.23
2018-07-12T14:40:57.102Z,2.83
2018-07-12T14:43:25.949Z,2.47
2018-07-12T14:45:54.750Z,2.40
2018-07-12T14:48:23.840Z,2.70
2018-07-12T14:50:52.663Z,2.50
2018-07-12T14:53:21.504Z,2.30
2018-07-12T14:55:50.242Z,2.40
2018-07-12T14:58:19.186Z,2.60
2018-07-12T15:00:49.132Z,2.27
2018-07-12T15:03:17.756Z,2.30
2018-07-12T15:05:54.129Z,2.53
2018-07-12T15:08:22.915Z,2.60
2018-07-12T15:10:51.774Z,2.90
2018-07-12T15:13:20.534Z,2.67
2018-07-12T15:15:49.336Z,3.10
2018-07-12T15:18:18.116Z,2.67
2018-07-12T15:20:48.994Z,2.23
2018-07-12T15:23:24.542Z,2.50
2018-07-12T15:25:53.395Z,2.50
2018-07-12T15:28:22.474Z,2.43
2018-07-12T15:30:51.196Z,2.73
2018-07-12T15:33:19.951Z,2.40
2018-07-12T15:35:48.751Z,2.60
2018-07-12T15:38:24.091Z,2.80
2018-07-12T15:40:52.918Z,2.43
2018-07-12T15:43:21.761Z,2.90
2018-07-12T15:46:07.388Z,2.30
2018-07-12T15:48:37.253Z,2.60
2018-07-12T15:51:06.370Z,3.00
2018-07-12T15:53:35.125Z,2.73
2018-07-12T15:56:12.581Z,2.53
2018-07-12T15:58:41.429Z,2.57
2018-07-12T16:01:10.227Z,2.70
2018-07-12T16:03:41.062Z,2.53
2018-07-12T16:06:09.887Z,2.60
2018-07-12T16:08:38.705Z,2.67
2018-07-12T16:11:07.546Z,2.40
2018-07-12T16:13:36.341Z,2.63
2018-07-12T16:16:05.202Z,2.27
2018-07-12T16:18:33.925Z,3.07
2018-07-12T16:21:02.986Z,3.10
2018-07-12T16:23:31.797Z,2.57
2018-07-12T16:26:05.806Z,4.50
2018-07-12T16:28:34.599Z,4.50
2018-07-12T16:31:03.405Z,3.77
2018-07-12T16:33:32.176Z,3.73
2018-07-12T16:36:00.656Z,2.70
2018-07-12T16:38:29.145Z,2.93
2018-07-12T16:40:57.809Z,2.33
2018-07-12T16:43:26.615Z,2.62
2018-07-12T16:45:55.415Z,2.42
2018-07-12T16:48:24.246Z,2.80
2018-07-12T16:50:53.173Z,2.95
2018-07-12T16:53:22.361Z,3.55
2018-07-12T16:55:51.130Z,3.17
2018-07-12T16:58:19.957Z,3.08
2018-07-12T17:00:48.845Z,3.02
2018-07-12T17:03:17.661Z,2.45
2018-07-12T17:05:46.502Z,3.10
2018-07-12T17:08:18.945Z,3.08
2018-07-12T17:10:47.793Z,2.58
2018-07-12T17:13:16.621Z,3.00
2018-07-12T17:15:45.526Z,3.10
2018-07-12T17:18:14.321Z,3.00
2018-07-12T17:20:43.211Z,3.02
2018-07-12T17:23:12.197Z,3.00
2018-07-12T17:25:40.980Z,2.72
2018-07-12T17:28:09.797Z,3.02
2018-07-12T17:30:38.586Z,2.95
2018-07-12T17:33:07.467Z,3.20
2018-07-12T17:35:36.262Z,2.75
2018-07-12T17:38:05.338Z,3.00
2018-07-12T17:40:34.227Z,3.07
2018-07-12T17:43:02.938Z,3.40
2018-07-12T17:45:31.750Z,3.77
2018-07-12T17:48:00.677Z,3.50
2018-07-12T17:50:31.473Z,3.60
2018-07-12T17:53:00.342Z,3.33
2018-07-12T17:55:29.129Z,3.40
2018-07-12T17:57:57.894Z,3.73
2018-07-12T18:00:26.821Z,3.10
2018-07-12T18:02:55.726Z,3.67
2018-07-12T18:05:24.624Z,3.60
2018-07-12T18:10:47.965Z,3.80
2018-07-12T18:13:16.888Z,4.30
2018-07-12T18:15:45.706Z,4.80
2018-07-12T18:18:14.637Z,5.87
2018-07-12T18:20:43.715Z,6.47
2018-07-12T18:23:12.483Z,6.47
2018-07-12T18:25:43.402Z,6.70
2018-07-12T18:28:12.441Z,6.57
2018-07-12T18:30:45.405Z,7.33
2018-07-12T18:33:14.250Z,7.70
2018-07-12T18:35:43.142Z,8.17
2018-07-12T18:38:11.713Z,8.43
2018-07-12T18:40:40.731Z,8.67
2018-07-12T18:43:09.550Z,9.13
2018-07-12T18:45:38.344Z,9.37
2018-07-12T18:48:07.197Z,8.90
2018-07-12T18:50:36.009Z,8.80
2018-07-12T18:53:04.767Z,8.60
2018-07-12T18:55:33.555Z,7.93
2018-07-12T18:58:03.182Z,8.13
2018-07-12T19:00:32.048Z,9.50
2018-07-12T19:03:00.798Z,8.00
2018-07-12T19:05:29.546Z,8.27
2018-07-12T19:08:05.125Z,8.73
2018-07-12T19:10:33.964Z,7.77
2018-07-12T19:13:02.702Z,9.30
2018-07-12T19:15:31.602Z,6.97
2018-07-12T19:18:00.389Z,9.37
2018-07-12T19:20:36.914Z,7.73
2018-07-12T19:23:05.800Z,8.37
2018-07-12T19:25:34.669Z,7.87
2018-07-12T19:28:03.689Z,8.43
2018-07-12T19:30:32.489Z,8.57
2018-07-12T19:33:01.446Z,9.50
2018-07-12T19:35:30.373Z,8.47
2018-07-12T19:37:59.079Z,7.87
2018-07-12T19:40:28.021Z,8.63
2018-07-12T19:42:59.682Z,8.93
2018-07-12T19:45:28.442Z,9.20
2018-07-12T19:47:57.289Z,8.93
2018-07-12T19:50:26.381Z,7.30
2018-07-12T19:52:55.233Z,8.00
2018-07-12T19:55:24.114Z,9.13
2018-07-12T19:57:53.070Z,8.27
2018-07-12T20:00:21.814Z,7.17
2018-07-12T20:02:50.385Z,8.07
2018-07-12T20:05:19.010Z,8.60
2018-07-12T20:07:47.858Z,8.00
2018-07-12T20:10:16.596Z,6.23
2018-07-12T20:12:45.425Z,7.43
2018-07-12T20:15:20.717Z,6.23
2018-07-12T20:17:58.985Z,7.90
2018-07-12T20:20:38.649Z,7.60
2018-07-12T20:23:08.491Z,7.90
2018-07-12T20:25:37.880Z,7.53
2018-07-12T20:28:06.993Z,6.87
2018-07-12T20:30:35.916Z,7.33
2018-07-12T20:33:09.564Z,7.00
2018-07-12T20:35:38.418Z,7.30
2018-07-12T20:38:07.201Z,7.90
2018-07-12T20:40:39.312Z,7.20
2018-07-12T20:43:08.229Z,7.00
2018-07-12T20:45:37.094Z,6.90
2018-07-12T20:48:06.030Z,8.03
2018-07-12T20:50:34.792Z,7.10
2018-07-12T20:53:03.721Z,6.73
2018-07-12T20:55:32.560Z,6.77
2018-07-12T20:58:01.350Z,6.80
2018-07-12T21:00:30.193Z,7.33
2018-07-12T21:02:59.006Z,7.23
2018-07-12T21:05:27.802Z,6.70
2018-07-12T21:07:56.618Z,7.60
2018-07-12T21:10:25.810Z,7.13
2018-07-12T21:12:54.627Z,7.47
2018-07-12T21:15:23.488Z,7.67
2018-07-12T21:17:52.327Z,8.00
2018-07-12T21:20:22.228Z,7.93
2018-07-12T21:22:51.173Z,8.13
2018-07-12T21:25:20.268Z,7.23
2018-07-12T21:27:49.186Z,8.23
2018-07-12T21:30:17.957Z,8.73
2018-07-12T21:32:46.753Z,7.87
2018-07-12T21:35:16.643Z,5.83
2018-07-12T21:37:45.437Z,7.33
2018-07-12T21:40:14.441Z,7.30
2018-07-12T21:42:43.373Z,7.17
2018-07-12T21:45:12.134Z,7.97
2018-07-12T21:47:40.957Z,8.13
2018-07-12T21:50:15.962Z,8.17
2018-07-12T21:52:49.021Z,8.07
2018-07-12T21:55:17.767Z,7.53
2018-07-12T21:57:46.566Z,7.10
2018-07-12T22:00:15.380Z,7.90
2018-07-12T22:02:44.366Z,7.90
2018-07-12T22:05:13.113Z,6.87
2018-07-12T22:08:23.513Z,7.07
2018-07-12T22:10:54.388Z,8.57
2018-07-12T22:13:23.817Z,7.57
2018-07-12T22:15:56.706Z,8.33
2018-07-12T22:18:25.473Z,8.03
2018-07-12T22:20:54.289Z,8.00
2018-07-12T22:23:23.097Z,7.60
2018-07-12T22:25:51.913Z,7.83
2018-07-12T22:28:20.769Z,7.20
2018-07-12T22:30:49.624Z,7.57
2018-07-12T22:33:18.433Z,7.23
2018-07-12T22:35:47.257Z,5.97
2018-07-12T22:38:16.087Z,7.43
2018-07-12T22:40:44.889Z,6.97
2018-07-12T22:43:20.104Z,7.17
2018-07-12T22:45:49.222Z,7.50
2018-07-12T22:48:18.193Z,9.20
2018-07-12T22:50:47.055Z,7.97
2018-07-12T22:53:15.864Z,7.57
2018-07-12T22:55:44.617Z,7.73
2018-07-12T22:58:13.381Z,8.07
2018-07-12T23:00:42.450Z,7.77
2018-07-12T23:03:11.269Z,8.10
2018-07-12T23:05:40.002Z,8.83
2018-07-12T23:08:08.777Z,8.73
2018-07-12T23:10:37.629Z,8.43
2018-07-12T23:13:06.457Z,7.80
2018-07-12T23:15:35.245Z,8.10
2018-07-12T23:18:04.097Z,8.60
2018-07-12T23:20:32.835Z,8.60
2018-07-12T23:23:01.726Z,8.53
2018-07-12T23:25:30.649Z,8.67
2018-07-12T23:27:59.440Z,8.87
2018-07-12T23:30:28.386Z,8.90
2018-07-12T23:32:57.170Z,9.53
2018-07-12T23:35:25.905Z,12.23
2018-07-12T23:37:54.718Z,10.17
2018-07-12T23:40:23.491Z,11.90
2018-07-12T23:42:52.145Z,10.77
2018-07-12T23:45:20.889Z,8.80
2018-07-12T23:47:56.080Z,7.20
2018-07-12T23:50:39.308Z,8.43
2018-07-12T23:53:08.105Z,8.87
2018-07-12T23:55:36.978Z,9.70
2018-07-12T23:58:05.992Z,9.10
